Flight Track Log - Related Links

Times and Time Zones

All times are in EDT time to prevent confusion due to time zone crossing. See the JIA2342 flight status page for this flight to view local times or setup timezone preferences in your user account.

Time Position Orientation Groundspeed Altitude Reporting Facility
EDT Latitude Longitude Course Direction KTS MPH feet Rate Location/Type
Wed 07:38:10 PM 38.8667 -77.0333 90° East 163 188 800  Level Potomac TRACON
Wed 07:39:10 PM 38.9000 -77.0833 311° West 227 261 2,300 1,870 Climbing Potomac TRACON
Wed 07:40:44 PM 38.9886 -77.1647 324° Northwest 249 287 5,600 2,377 Climbing Washington Center
Wed 07:41:44 PM 39.0394 -77.0883 49° Northeast 206 237 8,400 2,492 Climbing Washington Center
Wed 07:42:42 PM 39.0761 -76.9953 63° Northeast 223 257 10,500 2,034 Climbing Washington Center
Wed 07:43:00 PM 39.1167 -76.2837 90° East  Level FlightAware
Wed 07:43:42 PM 39.0858 -76.8778 84° East 273 314 12,400  Level Washington Center
Wed 07:44:43 PM 39.0975 -76.7525 83° East 309 356 13,900 1,250 Climbing Washington Center
Wed 07:45:42 PM 39.1131 -76.6269 81° East 325 374 14,900 1,311 Climbing Washington Center
Wed 07:46:42 PM 39.1228 -76.4825 85° East 371 427 16,500 1,388 Climbing Washington Center
Wed 07:47:43 PM 39.1361 -76.3381 83° East 391 450 17,700 1,230 Climbing Washington Center
Wed 07:48:44 PM 39.1517 -76.1911 82° East 410 472 19,000 1,240 Climbing Washington Center
Wed 07:49:44 PM 39.1731 -76.0467 79° East 410 472 20,200 1,109 Climbing Washington Center
Wed 07:50:43 PM 39.1922 -75.9022 80° East 410 472 21,200 1,000 Climbing Washington Center
Wed 07:51:44 PM 39.2592 -75.7925 52° Northeast 388 447 22,200 992 Climbing Washington Center
Wed 07:52:44 PM 39.3383 -75.6908 45° Northeast 381 438 23,200 992 Climbing Washington Center
Wed 07:53:45 PM 39.4197 -75.5917 43° Northeast 387 445 24,200 915 Climbing Washington Center
Wed 07:54:42 PM 39.4969 -75.4894 46° Northeast 387 445 25,000 807 Climbing Washington Center
Wed 07:55:44 PM 39.5739 -75.3842 47° Northeast 387 445 25,800 719 Climbing Washington Center
Wed 07:57:29 PM 39.7136 -75.1994 45° Northeast 392 451 27,000 655 Climbing New Center
Wed 07:58:29 PM 39.7928 -75.0828 49° Northeast 415 478 27,600 550 Climbing New Center
Wed 07:59:29 PM 39.8700 -74.9714 48° Northeast 422 486 28,100 496 Climbing New Center
Wed 08:00:30 PM 39.9489 -74.8597 47° Northeast 422 486 28,600 443 Climbing New Center
Wed 08:01:31 PM 40.0297 -74.7478 47° Northeast 422 486 29,000 200 Climbing New Center
Wed 08:02:30 PM 40.1175 -74.6197 48° Northeast 430 495 29,000  Level New Center
Wed 08:03:30 PM 40.1939 -74.5125 47° Northeast 430 495 29,000 -99 Level New Center
Wed 08:04:31 PM 40.2975 -74.3958 41° Northeast 430 495 28,800 -605 Descending New Center
Wed 08:05:29 PM 40.3944 -74.2972 38° Northeast 430 495 27,800 -960 Descending New Center
Wed 08:07:51 PM 40.6047 -74.0639 40° Northeast 439 505 25,600 -1,010 Descending Boston Center
Wed 08:08:51 PM 40.7083 -73.9597 37° Northeast 433 498 24,400 -800 Descending Boston Center
Wed 08:09:51 PM 40.7931 -73.8628 41° Northeast 421 484 24,000 -200 Descending Boston Center
Wed 08:10:51 PM 40.8756 -73.7631 42° Northeast 408 470 24,000  Level Boston Center
Wed 08:11:51 PM 40.9411 -73.6739 46° Northeast 385 443 24,000 -500 Level Boston Center
Wed 08:12:51 PM 41.0439 -73.6069 26° Northeast 374 430 23,000 -550 Descending Boston Center
Wed 08:13:51 PM 41.1403 -73.5592 20° North 364 419 22,900 -650 Descending Boston Center
Wed 08:14:51 PM 41.2367 -73.5111 21° North 364 419 21,700 -1,250 Descending Boston Center
Wed 08:15:51 PM 41.3369 -73.4822 12° North 359 413 20,400 -1,350 Descending Boston Center
Wed 08:16:51 PM 41.4286 -73.4839 359° North 359 413 19,000 -1,550 Descending Boston Center
Wed 08:17:51 PM 41.5161 -73.4908 357° North 333 383 17,300 -1,650 Descending Boston Center
Wed 08:18:51 PM 41.6119 -73.4953 358° North 327 376 15,700 -1,500 Descending Boston Center
Wed 08:19:51 PM 41.6889 -73.4992 358° North 312 359 14,300 -1,550 Descending Boston Center
Wed 08:20:51 PM 41.7828 -73.5064 357° North 306 352 12,600 -1,350 Descending Boston Center
Wed 08:21:51 PM 41.8556 -73.5103 358° North 306 352 11,600 -800 Descending Boston Center
Wed 08:22:51 PM 41.9514 -73.5175 357° North 306 352 11,000 -360 Descending Boston Center
Wed 08:23:31 PM 42.0056 -73.5214 357° North 306 352 11,000  Level Boston Center
Wed 08:23:51 PM 42.0283 -73.5217 359° North 306 352 11,000  Level Boston Center
Wed 08:24:44 PM 42.1158 -73.5233 359° North 326 375 11,000  Level Boston Center
Wed 08:25:44 PM 42.1992 -73.5500 347° North 313 360 11,000 -694 Level Boston Center
Wed 08:26:45 PM 42.2739 -73.5819 342° North 267 307 9,600 -1,835 Descending Boston Center
Wed 08:27:45 PM 42.3444 -73.6142 341° North 253 291 7,300 -2,231 Descending Boston Center
Wed 08:28:46 PM 42.4086 -73.6436 341° North 247 284 5,100 -2,066 Descending Boston Center
Wed 08:29:47 PM 42.4750 -73.6758 340° North 246 283 3,100 -992 Descending Boston Center
Wed 08:30:53 PM 42.5372 -73.7025 342° North 210 242 3,000 -361 Descending Boston Center
Wed 08:32:00 PM 42.5908 -73.7458 329° Northwest 194 223 2,300 -516 Descending Boston Center
Wed 08:33:01 PM 42.6342 -73.7864 325° Northwest 188 216 1,900 -393 Descending Boston Center
Wed 08:34:02 PM 42.6778 -73.8042 343° North 160 184 1,500 -595 Descending Boston Center
Wed 08:35:02 PM 42.7194 -73.8078 356° North 144 166 700 -800 Descending Boston Center
Wed 08:37:00 PM 42.7333 -73.8000 340° North  Level FlightAware
Wed 08:44:00 PM 42.7491 -73.8020 340° North  Level Estimated

Login

Don't have an account? Register now (free) for customized features, flight alerts, and more!